createdAt,value
2022-12-05T00:00:40.322Z,7.69
2022-12-05T00:03:28.048Z,7.73
2022-12-05T00:06:15.181Z,7.71
2022-12-05T00:09:05.254Z,7.74
2022-12-05T00:11:52.366Z,7.76
2022-12-05T00:14:39.791Z,7.86
2022-12-05T00:17:26.623Z,7.81
2022-12-05T00:20:13.815Z,7.89
2022-12-05T00:23:01.146Z,7.87
2022-12-05T00:25:49.698Z,7.93
2022-12-05T00:28:37.065Z,7.96
2022-12-05T00:31:25.481Z,7.95
2022-12-05T00:34:12.422Z,7.92
2022-12-05T00:36:59.727Z,7.94
2022-12-05T00:39:46.658Z,8.07
2022-12-05T00:42:35.525Z,8.12
2022-12-05T00:45:23.310Z,8.06
2022-12-05T00:48:10.272Z,8.18
2022-12-05T00:51:02.019Z,8.19
2022-12-05T00:53:49.849Z,8.18
2022-12-05T00:56:40.283Z,8.26
2022-12-05T00:59:28.696Z,8.29
2022-12-05T01:02:15.597Z,8.33
2022-12-05T01:05:02.902Z,8.34
2022-12-05T01:07:49.790Z,8.31
2022-12-05T01:10:37.263Z,8.36
2022-12-05T01:13:25.598Z,8.33
2022-12-05T01:16:17.070Z,8.40
2022-12-05T01:19:07.825Z,8.38
2022-12-05T01:21:56.148Z,8.34
2022-12-05T01:24:43.387Z,8.37
2022-12-05T01:27:30.790Z,8.39
2022-12-05T01:30:17.949Z,8.41
2022-12-05T01:33:07.051Z,8.36
2022-12-05T01:35:54.219Z,8.37
2022-12-05T01:38:42.711Z,8.41
2022-12-05T01:41:32.045Z,8.48
2022-12-05T01:44:59.462Z,8.47
2022-12-05T01:47:46.511Z,8.55
2022-12-05T01:50:36.200Z,8.52
2022-12-05T01:53:23.574Z,8.54
2022-12-05T01:56:11.077Z,8.55
2022-12-05T01:58:57.989Z,8.59
2022-12-05T02:01:45.489Z,8.61
2022-12-05T02:04:36.611Z,8.66
2022-12-05T02:07:24.742Z,8.63
2022-12-05T02:10:12.455Z,8.63
2022-12-05T02:13:09.757Z,8.62
2022-12-05T02:16:04.486Z,8.64
2022-12-05T02:19:05.217Z,8.66
2022-12-05T02:22:38.175Z,8.67
2022-12-05T02:26:01.025Z,8.72
2022-12-05T02:29:12.370Z,8.73
2022-12-05T02:32:08.404Z,8.74
2022-12-05T02:35:00.951Z,8.71
2022-12-05T02:37:55.330Z,8.71
2022-12-05T02:40:47.631Z,8.75
2022-12-05T02:43:42.806Z,8.78
2022-12-05T02:46:32.207Z,8.77
2022-12-05T02:49:24.342Z,8.77
2022-12-05T02:52:14.282Z,8.76
2022-12-05T02:55:01.277Z,8.77
2022-12-05T02:57:55.868Z,8.79
2022-12-05T03:00:47.826Z,8.80
2022-12-05T03:03:36.046Z,8.81
2022-12-05T03:06:29.424Z,8.82
2022-12-05T03:09:20.565Z,8.77
2022-12-05T03:12:11.809Z,8.77
2022-12-05T03:15:02.364Z,8.73
2022-12-05T03:17:57.069Z,8.73
2022-12-05T03:20:48.783Z,8.73
2022-12-05T03:23:41.092Z,8.73
2022-12-05T03:26:39.056Z,8.74
2022-12-05T03:29:30.676Z,8.74
2022-12-05T03:32:24.559Z,8.71
2022-12-05T03:35:19.034Z,8.69
2022-12-05T03:38:12.696Z,8.69
2022-12-05T03:41:09.948Z,8.67
2022-12-05T03:44:02.400Z,8.64
2022-12-05T03:46:55.359Z,8.62
2022-12-05T03:49:46.419Z,8.64
2022-12-05T03:52:56.971Z,8.55
2022-12-05T03:55:46.682Z,8.53
2022-12-05T03:58:38.944Z,8.55
2022-12-05T04:01:30.619Z,8.55
2022-12-05T04:04:22.691Z,8.48
2022-12-05T04:07:10.549Z,8.49
2022-12-05T04:10:00.861Z,8.37
2022-12-05T04:12:50.065Z,8.39
2022-12-05T04:15:52.679Z,8.39
2022-12-05T04:18:44.880Z,8.42
2022-12-05T04:21:40.494Z,8.42
2022-12-05T04:24:49.983Z,8.43
2022-12-05T04:27:43.091Z,8.33
2022-12-05T04:30:36.884Z,8.35
2022-12-05T04:33:33.303Z,8.27
2022-12-05T04:36:23.713Z,8.35
2022-12-05T04:39:18.398Z,8.30
2022-12-05T04:42:09.806Z,8.26
2022-12-05T04:45:01.611Z,8.25
2022-12-05T04:47:55.521Z,8.17
2022-12-05T04:50:46.898Z,8.25
2022-12-05T04:53:34.765Z,8.28
2022-12-05T04:56:23.422Z,8.26
2022-12-05T04:59:10.903Z,8.25
2022-12-05T05:02:04.243Z,8.24
2022-12-05T05:04:53.591Z,8.26
2022-12-05T05:07:46.902Z,8.23
2022-12-05T05:10:40.612Z,8.14
2022-12-05T05:13:27.509Z,8.14
2022-12-05T05:16:18.895Z,8.04
2022-12-05T05:19:07.171Z,8.10
2022-12-05T05:21:54.288Z,8.11
2022-12-05T05:24:42.815Z,8.12
2022-12-05T05:27:29.833Z,8.05
2022-12-05T05:30:17.470Z,8.12
2022-12-05T05:33:03.965Z,8.06
2022-12-05T05:35:51.106Z,8.06
2022-12-05T05:38:38.758Z,7.93
2022-12-05T05:41:29.263Z,7.97
2022-12-05T05:44:16.461Z,7.95
2022-12-05T05:47:03.219Z,7.97
2022-12-05T05:49:49.983Z,7.94
2022-12-05T05:52:37.740Z,7.98
2022-12-05T05:55:24.639Z,8.01
2022-12-05T05:58:13.316Z,7.98
2022-12-05T06:01:05.217Z,7.95
2022-12-05T06:03:52.796Z,7.97
2022-12-05T06:06:39.955Z,7.99
2022-12-05T06:09:26.816Z,7.98
2022-12-05T06:12:13.616Z,7.98
2022-12-05T06:15:01.971Z,7.99
2022-12-05T06:17:48.879Z,7.93
2022-12-05T06:20:36.282Z,7.92
2022-12-05T06:23:23.823Z,7.98
2022-12-05T06:26:14.937Z,7.98
2022-12-05T06:29:01.833Z,8.04
2022-12-05T06:31:50.805Z,8.08
2022-12-05T06:34:37.789Z,8.07
2022-12-05T06:37:24.883Z,8.06
2022-12-05T06:40:12.846Z,7.97
2022-12-05T06:43:00.161Z,8.00
2022-12-05T06:45:47.981Z,7.98
2022-12-05T06:48:36.945Z,8.03
2022-12-05T06:51:24.430Z,8.06
2022-12-05T06:54:12.663Z,8.11
2022-12-05T06:56:59.787Z,8.12
2022-12-05T06:59:47.103Z,8.12
2022-12-05T07:02:33.056Z,8.15
2022-12-05T07:05:21.790Z,8.19
2022-12-05T07:08:08.585Z,8.22
2022-12-05T07:10:55.984Z,8.25
2022-12-05T07:13:42.740Z,8.22
2022-12-05T07:16:30.312Z,8.22
2022-12-05T07:19:17.005Z,8.22
2022-12-05T07:22:09.363Z,8.18
2022-12-05T07:24:58.653Z,8.18
2022-12-05T07:27:46.000Z,8.17
2022-12-05T07:30:32.804Z,8.16
2022-12-05T07:33:19.913Z,8.18
2022-12-05T07:36:09.063Z,8.14
2022-12-05T07:38:59.460Z,8.17
2022-12-05T07:41:46.177Z,8.20
2022-12-05T07:44:36.640Z,8.21
2022-12-05T07:47:23.400Z,8.22
2022-12-05T07:50:11.361Z,8.23
2022-12-05T07:52:58.172Z,8.25
2022-12-05T07:55:46.419Z,8.24
2022-12-05T07:58:34.485Z,8.26
2022-12-05T08:01:24.386Z,8.28
2022-12-05T08:04:15.238Z,8.30
2022-12-05T08:07:02.646Z,8.27
2022-12-05T08:09:50.157Z,8.28
2022-12-05T08:12:39.006Z,8.27
2022-12-05T08:15:26.112Z,8.28
2022-12-05T08:18:13.002Z,8.29
2022-12-05T08:21:03.186Z,8.26
2022-12-05T08:23:50.210Z,8.17
2022-12-05T08:26:38.856Z,8.19
2022-12-05T08:29:27.315Z,8.17
2022-12-05T08:32:14.498Z,8.20
2022-12-05T08:35:01.481Z,8.23
2022-12-05T08:37:48.617Z,8.28
2022-12-05T08:40:35.442Z,8.29
2022-12-05T08:43:22.661Z,8.35
2022-12-05T08:46:11.534Z,8.39
2022-12-05T08:48:58.816Z,8.39
2022-12-05T08:51:46.115Z,8.38
2022-12-05T08:54:33.283Z,8.40
2022-12-05T08:57:20.385Z,8.40
2022-12-05T09:00:09.365Z,8.41
2022-12-05T09:02:57.513Z,8.32
2022-12-05T09:05:44.736Z,8.36
2022-12-05T09:08:31.551Z,8.39
2022-12-05T09:11:21.419Z,8.45
2022-12-05T09:14:08.539Z,8.57
2022-12-05T09:16:55.667Z,8.67
2022-12-05T09:19:45.142Z,8.66
2022-12-05T09:22:32.534Z,8.71
2022-12-05T09:25:19.685Z,8.72
2022-12-05T09:28:06.745Z,8.75
2022-12-05T09:30:58.945Z,8.74
2022-12-05T09:33:46.946Z,8.75
2022-12-05T09:36:35.393Z,8.82
2022-12-05T09:39:22.304Z,8.83
2022-12-05T09:42:40.063Z,8.78
2022-12-05T09:45:35.366Z,8.85
2022-12-05T09:48:24.414Z,8.75
2022-12-05T09:51:12.710Z,8.77
2022-12-05T09:54:01.121Z,8.82
2022-12-05T09:56:51.589Z,8.87
2022-12-05T09:59:38.319Z,8.88
2022-12-05T10:02:42.760Z,8.87
2022-12-05T10:05:40.056Z,8.90
2022-12-05T10:08:33.813Z,8.89
2022-12-05T10:11:29.828Z,8.88
2022-12-05T10:14:26.457Z,8.92
2022-12-05T10:17:22.254Z,8.91
2022-12-05T10:20:16.216Z,8.92
2022-12-05T10:23:07.752Z,9.01
2022-12-05T10:26:00.774Z,9.12
2022-12-05T10:28:56.395Z,9.23
2022-12-05T10:31:46.144Z,9.26
2022-12-05T10:34:38.496Z,9.35
2022-12-05T10:37:25.614Z,9.48
2022-12-05T10:40:14.262Z,9.56
2022-12-05T10:43:01.104Z,9.61
2022-12-05T10:45:49.732Z,9.63
2022-12-05T10:48:38.640Z,9.61
2022-12-05T10:51:35.671Z,9.61
2022-12-05T10:54:27.045Z,9.62
2022-12-05T10:57:23.935Z,9.62
2022-12-05T11:00:14.930Z,9.65
2022-12-05T11:03:06.246Z,9.63
2022-12-05T11:05:54.069Z,9.60
2022-12-05T11:09:03.653Z,9.60
2022-12-05T11:12:01.600Z,9.62
2022-12-05T11:14:58.554Z,9.67
2022-12-05T11:17:45.691Z,9.60
2022-12-05T11:20:41.283Z,9.63
2022-12-05T11:23:29.882Z,9.64
2022-12-05T11:26:34.618Z,9.65
2022-12-05T11:29:36.694Z,9.61
2022-12-05T11:32:25.389Z,9.59
2022-12-05T11:35:24.231Z,9.58
2022-12-05T11:38:16.982Z,9.59
2022-12-05T11:41:27.529Z,9.58
2022-12-05T11:44:30.301Z,9.56
2022-12-05T11:47:32.972Z,9.59
2022-12-05T11:50:33.973Z,9.57
2022-12-05T11:53:41.301Z,9.56
2022-12-05T11:56:38.400Z,9.54
2022-12-05T11:59:45.014Z,9.50
2022-12-05T12:02:50.433Z,9.53
2022-12-05T12:05:42.591Z,9.53
2022-12-05T12:08:36.041Z,9.50
2022-12-05T12:11:32.203Z,9.52
2022-12-05T12:14:26.654Z,9.51
2022-12-05T12:17:22.093Z,9.51
2022-12-05T12:20:26.996Z,9.50
2022-12-05T12:23:29.160Z,9.51
2022-12-05T12:26:26.104Z,9.49
2022-12-05T12:29:26.109Z,9.47
2022-12-05T12:32:25.284Z,9.48
2022-12-05T12:35:29.334Z,9.47
2022-12-05T12:38:29.931Z,9.38
2022-12-05T12:41:33.139Z,9.42
2022-12-05T12:44:50.863Z,9.42
2022-12-05T12:47:51.882Z,9.36
2022-12-05T12:50:43.952Z,9.41
2022-12-05T12:53:51.600Z,9.32
2022-12-05T12:56:49.041Z,9.30
2022-12-05T13:00:02.940Z,9.27
2022-12-05T13:02:55.408Z,9.33
2022-12-05T13:05:47.714Z,9.33
2022-12-05T13:08:40.471Z,9.36
2022-12-05T13:11:32.868Z,9.38
2022-12-05T13:14:25.181Z,9.38
2022-12-05T13:17:18.770Z,9.33
2022-12-05T13:20:06.848Z,9.32
2022-12-05T13:22:55.452Z,9.32
2022-12-05T13:25:44.845Z,9.32
2022-12-05T13:28:35.440Z,9.33
2022-12-05T13:31:38.374Z,9.32
2022-12-05T13:34:47.608Z,9.34
2022-12-05T13:37:53.453Z,9.33
2022-12-05T13:41:08.525Z,9.30
2022-12-05T13:44:06.224Z,9.26
2022-12-05T13:46:55.281Z,9.23
2022-12-05T13:49:48.878Z,9.16
2022-12-05T13:52:44.864Z,9.14
2022-12-05T13:55:36.437Z,9.15
2022-12-05T13:58:45.611Z,9.11
2022-12-05T14:01:55.629Z,9.03
2022-12-05T14:04:51.533Z,9.04
2022-12-05T14:07:41.104Z,9.04
2022-12-05T14:11:10.618Z,9.01
2022-12-05T14:14:03.943Z,9.03
2022-12-05T14:16:53.454Z,8.98
2022-12-05T14:20:00.794Z,8.97
2022-12-05T14:23:03.647Z,8.97
2022-12-05T14:26:08.675Z,8.96
2022-12-05T14:29:07.398Z,8.99
2022-12-05T14:32:05.633Z,9.03
2022-12-05T14:35:02.956Z,9.06
2022-12-05T14:37:54.155Z,9.08
2022-12-05T14:40:43.699Z,9.06
2022-12-05T14:43:33.385Z,9.06
2022-12-05T14:46:26.487Z,9.09
2022-12-05T14:49:38.154Z,9.07
2022-12-05T14:52:30.554Z,9.11
2022-12-05T14:55:23.527Z,9.06
2022-12-05T14:58:19.309Z,9.08
2022-12-05T15:01:10.077Z,9.11
2022-12-05T15:04:07.138Z,9.12
2022-12-05T15:06:58.652Z,9.10
2022-12-05T15:09:56.461Z,9.06
2022-12-05T15:12:48.107Z,9.06
2022-12-05T15:15:38.807Z,8.96
2022-12-05T15:18:29.985Z,9.00
2022-12-05T15:24:14.486Z,8.99
2022-12-05T15:27:06.073Z,8.90
2022-12-05T15:29:56.531Z,8.96
2022-12-05T15:32:43.655Z,8.92
2022-12-05T15:35:33.848Z,8.97
2022-12-05T15:38:27.707Z,8.93
2022-12-05T15:41:18.135Z,8.89
2022-12-05T15:44:07.032Z,8.81
2022-12-05T15:46:54.673Z,8.82
2022-12-05T15:49:41.893Z,8.88
2022-12-05T15:52:38.925Z,8.90
2022-12-05T15:55:31.651Z,8.87
2022-12-05T15:58:24.728Z,8.87
2022-12-05T16:01:16.515Z,8.84
2022-12-05T16:04:07.935Z,8.80
2022-12-05T16:06:57.118Z,8.77
2022-12-05T16:09:47.372Z,8.75
2022-12-05T16:12:38.819Z,8.70
2022-12-05T16:15:27.978Z,8.62
2022-12-05T16:18:27.892Z,8.58
2022-12-05T16:21:34.434Z,8.53
2022-12-05T16:24:29.932Z,8.47
2022-12-05T16:27:19.198Z,8.37
2022-12-05T16:30:18.844Z,8.31
2022-12-05T16:33:08.832Z,8.27
2022-12-05T16:35:57.062Z,8.18
2022-12-05T16:38:45.825Z,8.11
2022-12-05T16:41:40.228Z,7.99
2022-12-05T16:45:03.755Z,7.89
2022-12-05T16:47:58.218Z,7.85
2022-12-05T16:50:45.932Z,7.78
2022-12-05T16:53:39.498Z,7.76
2022-12-05T16:56:38.294Z,7.71
2022-12-05T16:59:33.271Z,7.55
2022-12-05T17:02:21.123Z,7.46
2022-12-05T17:05:17.538Z,7.45
2022-12-05T17:08:21.293Z,7.43
2022-12-05T17:11:13.943Z,7.37
2022-12-05T17:14:01.073Z,7.26
2022-12-05T17:16:48.468Z,7.25
2022-12-05T17:19:35.523Z,7.24
2022-12-05T17:22:22.728Z,7.21
2022-12-05T17:25:21.320Z,7.13
2022-12-05T17:28:09.567Z,7.12
2022-12-05T17:30:56.395Z,7.10
2022-12-05T17:33:43.322Z,7.08
2022-12-05T17:36:30.241Z,7.07
2022-12-05T17:39:16.916Z,7.01
2022-12-05T17:42:03.831Z,7.00
2022-12-05T17:44:51.962Z,6.99
2022-12-05T17:47:39.178Z,6.99
2022-12-05T17:50:27.119Z,7.00
2022-12-05T17:53:16.450Z,7.01
2022-12-05T17:56:03.292Z,7.01
2022-12-05T17:58:50.639Z,7.02
2022-12-05T18:01:38.987Z,7.02
2022-12-05T18:04:26.395Z,7.03
2022-12-05T18:07:13.412Z,7.06
2022-12-05T18:10:00.632Z,7.07
2022-12-05T18:12:48.057Z,7.10
2022-12-05T18:15:40.938Z,7.11
2022-12-05T18:18:31.017Z,7.17
2022-12-05T18:21:18.436Z,7.20
2022-12-05T18:24:05.445Z,7.22
2022-12-05T18:26:52.550Z,7.26
2022-12-05T18:29:39.383Z,7.30
2022-12-05T18:32:26.913Z,7.33
2022-12-05T18:35:14.893Z,7.34
2022-12-05T18:38:03.235Z,7.30
2022-12-05T18:40:51.741Z,7.36
2022-12-05T18:43:40.338Z,7.41
2022-12-05T18:46:34.027Z,7.44
2022-12-05T18:49:31.173Z,7.48
2022-12-05T18:52:36.385Z,7.49
2022-12-05T18:55:43.631Z,7.54
2022-12-05T18:58:44.622Z,7.56
2022-12-05T19:01:33.792Z,7.57
2022-12-05T19:04:22.288Z,7.57
2022-12-05T19:07:09.427Z,7.59
2022-12-05T19:09:57.741Z,7.65
2022-12-05T19:12:44.925Z,7.67
2022-12-05T19:15:31.312Z,7.71
2022-12-05T19:18:18.570Z,7.75
2022-12-05T19:21:05.298Z,7.76
2022-12-05T19:23:52.959Z,7.78
2022-12-05T19:26:41.131Z,7.82
2022-12-05T19:29:28.200Z,7.85
2022-12-05T19:32:16.184Z,7.87
2022-12-05T19:35:03.451Z,7.86
2022-12-05T19:37:50.351Z,7.85
2022-12-05T19:40:37.727Z,7.87
2022-12-05T19:43:26.165Z,7.89
2022-12-05T19:46:15.259Z,7.89
2022-12-05T19:49:04.477Z,7.94
2022-12-05T19:51:52.549Z,7.97
2022-12-05T19:54:39.218Z,7.98
2022-12-05T19:57:31.052Z,7.90
2022-12-05T20:00:19.921Z,7.86
2022-12-05T20:03:12.033Z,7.82
2022-12-05T20:06:00.077Z,7.79
2022-12-05T20:08:48.428Z,7.74
2022-12-05T20:11:35.849Z,7.73
2022-12-05T20:14:24.413Z,7.71
2022-12-05T20:17:13.028Z,7.73
2022-12-05T20:20:01.268Z,7.75
2022-12-05T20:22:47.926Z,7.79
2022-12-05T20:25:36.891Z,7.84
2022-12-05T20:28:23.797Z,7.88
2022-12-05T20:31:12.794Z,7.89
2022-12-05T20:34:00.907Z,7.94
2022-12-05T20:36:48.012Z,7.98
2022-12-05T20:39:34.924Z,8.03
2022-12-05T20:42:22.228Z,8.04
2022-12-05T20:45:10.092Z,8.05
2022-12-05T20:47:57.184Z,8.04
2022-12-05T20:50:45.344Z,8.04
2022-12-05T20:53:35.418Z,8.01
2022-12-05T20:56:25.261Z,7.98
2022-12-05T20:59:14.489Z,7.96
2022-12-05T21:02:01.245Z,7.93
2022-12-05T21:04:48.621Z,7.93
2022-12-05T21:07:37.088Z,7.96
2022-12-05T21:10:24.300Z,7.99
2022-12-05T21:13:11.001Z,8.03
2022-12-05T21:15:58.176Z,8.05
2022-12-05T21:18:45.402Z,8.07
2022-12-05T21:21:34.251Z,8.10
2022-12-05T21:24:23.256Z,8.07
2022-12-05T21:27:10.459Z,8.04
2022-12-05T21:29:57.593Z,8.05
2022-12-05T21:32:45.198Z,8.08
2022-12-05T21:35:32.549Z,8.08
2022-12-05T21:38:19.353Z,8.10
2022-12-05T21:41:07.992Z,8.12
2022-12-05T21:43:56.013Z,8.13
2022-12-05T21:46:42.950Z,8.16
2022-12-05T21:49:30.121Z,8.16
2022-12-05T21:52:16.981Z,8.17
2022-12-05T21:55:04.590Z,8.19
2022-12-05T21:57:52.483Z,8.20
2022-12-05T22:00:40.496Z,8.21
2022-12-05T22:03:28.113Z,8.24
2022-12-05T22:06:16.263Z,8.27
2022-12-05T22:09:03.795Z,8.33
2022-12-05T22:11:50.520Z,8.36
2022-12-05T22:14:38.826Z,8.37
2022-12-05T22:17:25.924Z,8.40
2022-12-05T22:20:13.301Z,8.42
2022-12-05T22:23:00.361Z,8.42
2022-12-05T22:25:56.670Z,8.44
2022-12-05T22:28:43.767Z,8.41
2022-12-05T22:31:32.333Z,8.43
2022-12-05T22:34:19.154Z,8.46
2022-12-05T22:39:53.679Z,8.44
2022-12-05T22:42:40.785Z,8.42
2022-12-05T22:45:27.577Z,8.42
2022-12-05T22:48:16.118Z,8.46
2022-12-05T22:51:03.870Z,8.49
2022-12-05T22:53:51.889Z,8.53
2022-12-05T22:56:38.948Z,8.58
2022-12-05T22:59:26.493Z,8.60
2022-12-05T23:02:16.369Z,8.59
2022-12-05T23:05:05.602Z,8.57
2022-12-05T23:07:52.789Z,8.56
2022-12-05T23:10:40.575Z,8.53
2022-12-05T23:13:28.023Z,8.52
2022-12-05T23:16:16.591Z,8.55
2022-12-05T23:19:06.321Z,8.58
2022-12-05T23:21:55.302Z,8.61
2022-12-05T23:24:42.317Z,8.64
2022-12-05T23:27:29.794Z,8.61
2022-12-05T23:30:17.062Z,8.60
2022-12-05T23:33:04.492Z,8.57
2022-12-05T23:35:54.598Z,8.57
2022-12-05T23:38:46.210Z,8.56
2022-12-05T23:41:33.420Z,8.59
2022-12-05T23:44:20.661Z,8.58
2022-12-05T23:47:07.715Z,8.59
2022-12-05T23:49:55.718Z,8.59
2022-12-05T23:52:42.913Z,8.60
2022-12-05T23:55:36.477Z,8.62
2022-12-05T23:58:23.471Z,8.63
